Time;durP1;ratioP1;P1;durP2;ratioP2;P2;SDS_P1;SDS_P2;PMS_P1;PMS_P2;Temp;Humidity;BMP_temperature;BMP_pressure;BME280_temperature;BME280_humidity;BME280_pressure;Samples;Min_cycle;Max_cycle;Signal;HPM_P1;HPM_P2
2023/06/11 00:02:32;;;;;;;;;;;22.60;45.80;;;;;;5010175;28;19925;-64
2023/06/11 00:04:59;;;;;;;;;;;22.60;45.70;;;;;;5003259;28;19934;-65
2023/06/11 00:07:27;;;;;;;;;;;22.60;45.70;;;;;;5009448;28;19937;-63
2023/06/11 00:09:54;;;;;;;;;;;22.60;45.50;;;;;;4997976;28;20045;-61
2023/06/11 00:12:21;;;;;;;;;;;22.60;45.40;;;;;;5008927;28;20011;-64
2023/06/11 00:14:47;;;;;;;;;;;22.60;45.40;;;;;;4999614;28;19969;-64
2023/06/11 00:17:14;;;;;;;;;;;22.60;45.30;;;;;;4996976;28;19934;-63
2023/06/11 00:19:43;;;;;;;;;;;22.60;45.20;;;;;;4995341;28;19921;-65
2023/06/11 00:22:09;;;;;;;;;;;22.60;45.20;;;;;;5006065;28;19992;-63
2023/06/11 00:24:36;;;;;;;;;;;22.60;45.10;;;;;;4994789;28;19967;-65
2023/06/11 00:27:03;;;;;;;;;;;22.60;45.10;;;;;;5008434;28;19944;-65
2023/06/11 00:29:30;;;;;;;;;;;22.50;45.00;;;;;;5007242;28;19921;-65
2023/06/11 00:31:58;;;;;;;;;;;22.60;45.00;;;;;;5006246;28;20385;-63
2023/06/11 00:34:26;;;;;;;;;;;22.60;45.00;;;;;;5007875;28;19926;-64
2023/06/11 00:36:54;;;;;;;;;;;22.50;44.80;;;;;;5002094;28;19924;-61
2023/06/11 00:39:21;;;;;;;;;;;22.50;44.80;;;;;;5008329;28;19929;-63
2023/06/11 00:41:48;;;;;;;;;;;22.50;44.70;;;;;;5012048;28;19921;-63
2023/06/11 00:44:17;;;;;;;;;;;22.50;44.70;;;;;;5010096;28;19933;-63
2023/06/11 00:46:44;;;;;;;;;;;22.50;44.60;;;;;;5004321;28;19922;-63
2023/06/11 00:49:12;;;;;;;;;;;22.50;44.60;;;;;;5008902;28;20364;-65
2023/06/11 00:51:39;;;;;;;;;;;22.50;44.50;;;;;;4999903;28;19964;-61
2023/06/11 00:54:07;;;;;;;;;;;22.50;44.50;;;;;;5002823;28;19921;-65
2023/06/11 00:56:34;;;;;;;;;;;22.50;44.50;;;;;;5010821;28;19921;-65
2023/06/11 00:59:01;;;;;;;;;;;22.50;44.50;;;;;;5002132;28;19925;-64
2023/06/11 01:01:29;;;;;;;;;;;22.50;44.40;;;;;;5004790;28;19929;-64
2023/06/11 01:03:57;;;;;;;;;;;22.50;44.40;;;;;;5010308;28;19945;-65
2023/06/11 01:06:24;;;;;;;;;;;22.50;44.30;;;;;;5029576;28;19925;-64
2023/06/11 01:08:55;;;;;;;;;;;22.50;44.20;;;;;;5009259;28;19979;-63
2023/06/11 01:11:23;;;;;;;;;;;22.50;44.20;;;;;;4998579;28;19967;-64
2023/06/11 01:13:49;;;;;;;;;;;22.50;44.20;;;;;;5012990;28;19967;-60
2023/06/11 01:16:17;;;;;;;;;;;22.50;44.10;;;;;;5024527;28;19964;-64
2023/06/11 01:18:46;;;;;;;;;;;22.50;44.10;;;;;;5006170;28;20019;-61
2023/06/11 01:21:17;;;;;;;;;;;22.50;44.10;;;;;;5007153;28;19930;-60
2023/06/11 01:23:47;;;;;;;;;;;22.50;44.00;;;;;;5011549;28;20019;-61
2023/06/11 01:26:28;;;;;;;;;;;22.50;44.00;;;;;;5006807;28;20395;-62
2023/06/11 01:28:56;;;;;;;;;;;22.40;43.80;;;;;;4996804;28;19981;-59
2023/06/11 01:31:25;;;;;;;;;;;22.40;43.80;;;;;;5008224;28;19922;-63
2023/06/11 01:33:52;;;;;;;;;;;22.40;43.80;;;;;;5006664;28;20356;-62
2023/06/11 01:36:21;;;;;;;;;;;22.40;44.40;;;;;;5005119;28;19927;-60
2023/06/11 01:38:51;;;;;;;;;;;22.40;43.80;;;;;;5003147;28;19960;-63
2023/06/11 01:41:17;;;;;;;;;;;22.40;43.80;;;;;;5000815;28;19933;-63
2023/06/11 01:43:44;;;;;;;;;;;22.40;43.70;;;;;;5003650;28;19968;-58
2023/06/11 01:46:13;;;;;;;;;;;22.40;43.70;;;;;;5005894;28;20272;-62
2023/06/11 01:48:40;;;;;;;;;;;22.40;43.70;;;;;;5010878;28;19926;-63
2023/06/11 01:51:07;;;;;;;;;;;22.40;43.60;;;;;;5010629;28;19941;-63
2023/06/11 01:53:33;;;;;;;;;;;22.40;43.60;;;;;;5003824;28;19960;-63
2023/06/11 01:56:00;;;;;;;;;;;22.40;43.50;;;;;;5006604;28;19972;-65
2023/06/11 01:58:27;;;;;;;;;;;22.40;43.50;;;;;;5008882;28;20013;-64
2023/06/11 02:00:54;;;;;;;;;;;22.40;43.50;;;;;;4999770;28;20353;-63
2023/06/11 02:03:22;;;;;;;;;;;22.40;43.50;;;;;;4987298;28;20350;-62
2023/06/11 02:05:49;;;;;;;;;;;22.40;43.40;;;;;;5008426;28;19976;-65
2023/06/11 02:08:15;;;;;;;;;;;22.40;43.40;;;;;;5018379;28;19934;-62
2023/06/11 02:10:43;;;;;;;;;;;22.40;43.40;;;;;;5008018;28;19991;-63
2023/06/11 02:13:09;;;;;;;;;;;22.40;43.40;;;;;;5009179;28;19925;-63
2023/06/11 02:15:36;;;;;;;;;;;22.40;43.40;;;;;;5009460;28;20406;-62
2023/06/11 02:18:03;;;;;;;;;;;22.40;43.30;;;;;;5008476;28;19928;-63
2023/06/11 02:20:31;;;;;;;;;;;22.40;43.30;;;;;;5012024;28;19928;-61
2023/06/11 02:22:58;;;;;;;;;;;22.40;43.20;;;;;;5023695;28;19972;-62
2023/06/11 02:25:25;;;;;;;;;;;22.40;43.20;;;;;;5011556;28;19928;-62
2023/06/11 02:27:52;;;;;;;;;;;22.40;43.80;;;;;;5009086;28;19952;-63
2023/06/11 02:30:19;;;;;;;;;;;22.40;43.20;;;;;;5010660;28;19922;-64
2023/06/11 02:32:45;;;;;;;;;;;22.40;43.20;;;;;;5001763;28;19925;-66
2023/06/11 02:35:12;;;;;;;;;;;22.40;43.10;;;;;;5011193;28;19921;-63
2023/06/11 02:37:40;;;;;;;;;;;22.40;43.10;;;;;;5008567;28;19921;-62
2023/06/11 02:40:08;;;;;;;;;;;22.30;43.00;;;;;;4999599;28;19964;-63
2023/06/11 02:42:34;;;;;;;;;;;22.30;43.00;;;;;;5000252;28;20054;-63
2023/06/11 02:45:01;;;;;;;;;;;22.30;42.90;;;;;;5009104;28;19921;-63
2023/06/11 02:47:28;;;;;;;;;;;22.30;43.00;;;;;;5004900;28;19922;-60
2023/06/11 02:49:55;;;;;;;;;;;22.30;42.90;;;;;;4998189;28;19972;-60
2023/06/11 02:52:22;;;;;;;;;;;22.30;42.90;;;;;;5008203;28;19925;-63
2023/06/11 02:54:50;;;;;;;;;;;22.30;42.90;;;;;;5024639;28;20000;-62
2023/06/11 02:57:16;;;;;;;;;;;22.30;42.90;;;;;;5007049;28;19980;-59
2023/06/11 02:59:43;;;;;;;;;;;22.30;42.80;;;;;;5006075;28;19921;-63
2023/06/11 03:02:10;;;;;;;;;;;22.30;42.80;;;;;;5000769;28;19933;-62
2023/06/11 03:04:37;;;;;;;;;;;22.30;42.80;;;;;;5008663;28;19929;-62
2023/06/11 03:07:04;;;;;;;;;;;22.30;42.80;;;;;;5000822;28;20020;-62
2023/06/11 03:09:30;;;;;;;;;;;22.30;42.80;;;;;;5014861;28;19921;-63
2023/06/11 03:11:58;;;;;;;;;;;22.30;42.80;;;;;;5002142;28;19922;-61
2023/06/11 03:14:26;;;;;;;;;;;22.30;42.90;;;;;;5003583;28;19927;-61
2023/06/11 03:16:52;;;;;;;;;;;22.30;42.80;;;;;;5001576;28;19931;-58
2023/06/11 03:19:19;;;;;;;;;;;22.30;42.80;;;;;;5008933;28;19975;-62
2023/06/11 03:21:46;;;;;;;;;;;22.30;42.80;;;;;;5001314;28;19929;-62
2023/06/11 03:24:13;;;;;;;;;;;22.30;42.80;;;;;;5005361;28;19932;-63
2023/06/11 03:26:40;;;;;;;;;;;22.30;42.80;;;;;;4993826;28;19973;-63
2023/06/11 03:29:08;;;;;;;;;;;22.30;42.80;;;;;;4977354;28;19980;-63
2023/06/11 03:31:35;;;;;;;;;;;22.30;42.80;;;;;;4993736;28;19984;-63
2023/06/11 03:34:03;;;;;;;;;;;22.30;42.80;;;;;;5016354;28;19932;-62
2023/06/11 03:36:30;;;;;;;;;;;22.30;42.80;;;;;;5005944;28;19929;-65
2023/06/11 03:38:56;;;;;;;;;;;22.30;42.70;;;;;;5022465;28;19926;-61
2023/06/11 03:41:23;;;;;;;;;;;22.30;42.80;;;;;;5020611;28;20359;-62
2023/06/11 03:43:50;;;;;;;;;;;22.30;42.80;;;;;;5005025;28;19926;-60
2023/06/11 03:46:21;;;;;;;;;;;22.30;42.80;;;;;;5008500;28;19980;-62
2023/06/11 03:48:47;;;;;;;;;;;22.30;42.80;;;;;;5023910;28;20292;-62
2023/06/11 03:51:14;;;;;;;;;;;22.30;42.70;;;;;;5007926;28;19921;-62
2023/06/11 03:53:41;;;;;;;;;;;22.30;42.70;;;;;;5008793;28;19921;-61
2023/06/11 03:56:08;;;;;;;;;;;22.30;42.70;;;;;;5008496;28;19921;-61
2023/06/11 03:58:35;;;;;;;;;;;22.30;42.70;;;;;;4997514;28;20264;-60
2023/06/11 04:01:01;;;;;;;;;;;22.20;42.60;;;;;;4998386;28;19921;-61
2023/06/11 04:03:29;;;;;;;;;;;22.20;42.60;;;;;;5005538;28;19933;-62
2023/06/11 04:05:56;;;;;;;;;;;22.20;42.60;;;;;;5007657;28;19921;-63
2023/06/11 04:08:23;;;;;;;;;;;22.20;42.60;;;;;;5003791;28;19968;-62
2023/06/11 04:10:50;;;;;;;;;;;22.20;42.60;;;;;;5008883;28;20314;-62
2023/06/11 04:13:17;;;;;;;;;;;22.20;42.60;;;;;;5003860;28;19932;-62
2023/06/11 04:15:43;;;;;;;;;;;22.20;42.60;;;;;;5003346;28;19928;-63
2023/06/11 04:18:11;;;;;;;;;;;22.20;42.60;;;;;;5009673;28;19937;-62
2023/06/11 04:20:39;;;;;;;;;;;22.20;42.60;;;;;;5004090;28;19934;-63
2023/06/11 04:23:06;;;;;;;;;;;22.20;42.60;;;;;;5009376;28;19921;-63
2023/06/11 04:25:33;;;;;;;;;;;22.20;42.60;;;;;;4998834;28;19921;-63
2023/06/11 04:28:00;;;;;;;;;;;22.20;42.70;;;;;;5022175;28;19964;-62
2023/06/11 04:30:27;;;;;;;;;;;22.20;42.70;;;;;;4998693;28;19933;-60
2023/06/11 04:32:55;;;;;;;;;;;22.20;42.70;;;;;;5005573;28;19927;-63
2023/06/11 04:35:23;;;;;;;;;;;22.20;42.70;;;;;;5009482;28;20446;-62
2023/06/11 04:37:51;;;;;;;;;;;22.20;42.70;;;;;;5012052;28;19921;-59
2023/06/11 04:40:19;;;;;;;;;;;22.20;42.70;;;;;;5003860;28;19925;-63
2023/06/11 04:42:46;;;;;;;;;;;22.20;42.80;;;;;;5011543;28;19921;-61
2023/06/11 04:45:12;;;;;;;;;;;22.20;42.80;;;;;;5003727;28;19976;-62
2023/06/11 04:47:40;;;;;;;;;;;22.20;43.30;;;;;;5009561;28;20008;-63
2023/06/11 04:50:07;;;;;;;;;;;22.20;42.70;;;;;;4993430;28;19929;-63
2023/06/11 04:52:35;;;;;;;;;;;22.20;42.70;;;;;;5018854;28;20323;-62
2023/06/11 04:55:04;;;;;;;;;;;22.20;42.80;;;;;;5012899;28;19957;-61
2023/06/11 04:57:32;;;;;;;;;;;22.20;42.80;;;;;;5008161;28;19944;-62
2023/06/11 04:59:58;;;;;;;;;;;22.20;42.80;;;;;;5003760;28;19956;-63
2023/06/11 05:02:25;;;;;;;;;;;22.20;42.80;;;;;;5008330;28;20156;-62
2023/06/11 05:04:53;;;;;;;;;;;22.20;42.80;;;;;;5007527;28;19972;-63
2023/06/11 05:07:20;;;;;;;;;;;22.20;42.90;;;;;;5004175;28;19932;-61
2023/06/11 05:09:47;;;;;;;;;;;22.20;43.50;;;;;;5003627;28;19988;-62
2023/06/11 05:12:15;;;;;;;;;;;22.20;42.90;;;;;;5007164;28;19967;-63
2023/06/11 05:14:42;;;;;;;;;;;22.20;42.90;;;;;;4997762;28;19945;-62
2023/06/11 05:17:09;;;;;;;;;;;22.20;42.90;;;;;;4998623;28;19922;-63
2023/06/11 05:19:36;;;;;;;;;;;22.20;42.90;;;;;;5010729;28;19941;-62
2023/06/11 05:22:03;;;;;;;;;;;22.20;43.00;;;;;;5010398;28;19955;-62
2023/06/11 05:24:30;;;;;;;;;;;22.20;43.00;;;;;;5005451;28;20021;-62
2023/06/11 05:26:56;;;;;;;;;;;22.20;43.10;;;;;;5008915;28;19933;-62
2023/06/11 05:29:25;;;;;;;;;;;22.20;43.10;;;;;;5006212;28;19957;-63
2023/06/11 05:31:52;;;;;;;;;;;22.20;43.10;;;;;;5007754;28;19929;-63
2023/06/11 05:34:19;;;;;;;;;;;22.20;43.10;;;;;;5003470;28;19933;-63
2023/06/11 05:36:48;;;;;;;;;;;22.20;43.20;;;;;;5011696;28;20028;-61
2023/06/11 05:39:14;;;;;;;;;;;22.20;43.10;;;;;;5000961;28;19922;-62
2023/06/11 05:41:41;;;;;;;;;;;22.20;43.20;;;;;;5007709;28;20142;-62
2023/06/11 05:44:08;;;;;;;;;;;22.20;43.20;;;;;;5003269;28;19925;-60
2023/06/11 05:46:36;;;;;;;;;;;22.20;43.20;;;;;;5000795;28;19964;-63
2023/06/11 05:49:03;;;;;;;;;;;22.20;43.30;;;;;;5001596;28;19922;-62
2023/06/11 05:51:30;;;;;;;;;;;22.20;43.30;;;;;;5010104;28;19921;-62
2023/06/11 05:53:56;;;;;;;;;;;22.20;43.30;;;;;;5003360;28;19944;-62
2023/06/11 05:56:23;;;;;;;;;;;22.20;43.30;;;;;;5004133;28;19929;-63
2023/06/11 05:58:50;;;;;;;;;;;22.20;43.40;;;;;;5003360;28;19976;-63
2023/06/11 06:01:17;;;;;;;;;;;22.20;43.40;;;;;;5001917;28;20277;-63
2023/06/11 06:03:45;;;;;;;;;;;22.20;43.40;;;;;;5005215;28;19936;-62
2023/06/11 06:06:12;;;;;;;;;;;22.20;43.40;;;;;;5020344;28;19922;-60
2023/06/11 06:08:39;;;;;;;;;;;22.20;43.40;;;;;;5005127;28;19949;-62
2023/06/11 06:11:07;;;;;;;;;;;22.20;43.50;;;;;;5011468;28;19925;-61
2023/06/11 06:13:33;;;;;;;;;;;22.20;43.50;;;;;;5002538;28;19945;-62
2023/06/11 06:16:00;;;;;;;;;;;22.20;43.50;;;;;;5004248;28;19968;-59
2023/06/11 06:18:27;;;;;;;;;;;22.20;43.50;;;;;;5006427;28;19992;-60
2023/06/11 06:20:56;;;;;;;;;;;22.20;43.60;;;;;;5007633;28;19928;-60
2023/06/11 06:23:22;;;;;;;;;;;22.20;43.60;;;;;;5006941;28;19922;-64
2023/06/11 06:25:50;;;;;;;;;;;22.20;43.60;;;;;;5002359;28;19921;-64
2023/06/11 06:28:17;;;;;;;;;;;22.20;43.60;;;;;;5004442;28;20316;-62
2023/06/11 06:30:44;;;;;;;;;;;22.20;43.70;;;;;;5004968;28;19921;-63
2023/06/11 06:33:11;;;;;;;;;;;22.20;43.70;;;;;;5007305;28;19980;-64
2023/06/11 06:35:39;;;;;;;;;;;22.20;43.70;;;;;;5007095;28;19945;-63
2023/06/11 06:38:07;;;;;;;;;;;22.20;43.70;;;;;;5006448;28;19922;-62
2023/06/11 06:40:34;;;;;;;;;;;22.30;43.80;;;;;;5006134;28;19976;-63
2023/06/11 06:43:01;;;;;;;;;;;22.30;43.90;;;;;;5003255;28;19926;-63
2023/06/11 06:45:28;;;;;;;;;;;22.30;43.90;;;;;;5006281;28;19921;-61
2023/06/11 06:47:55;;;;;;;;;;;22.30;43.90;;;;;;5001375;28;19979;-61
2023/06/11 06:50:21;;;;;;;;;;;22.30;43.90;;;;;;5007166;28;19922;-63
2023/06/11 06:52:48;;;;;;;;;;;22.30;43.90;;;;;;5004078;28;20434;-59
2023/06/11 06:55:16;;;;;;;;;;;22.30;43.90;;;;;;5004829;28;19976;-62
2023/06/11 06:57:43;;;;;;;;;;;22.20;43.90;;;;;;5000420;28;19933;-64
2023/06/11 07:00:11;;;;;;;;;;;22.30;44.00;;;;;;5022875;28;19933;-63
2023/06/11 07:02:38;;;;;;;;;;;22.20;43.90;;;;;;5009443;28;20356;-63
2023/06/11 07:05:05;;;;;;;;;;;22.30;44.00;;;;;;5008028;28;19921;-63
2023/06/11 07:07:32;;;;;;;;;;;22.30;44.00;;;;;;5004736;28;20016;-63
2023/06/11 07:09:59;;;;;;;;;;;22.30;44.10;;;;;;5019922;28;20016;-62
2023/06/11 07:12:27;;;;;;;;;;;22.30;44.10;;;;;;5007237;28;19984;-63
2023/06/11 07:14:54;;;;;;;;;;;22.30;44.10;;;;;;5001142;28;20320;-64
2023/06/11 07:17:32;;;;;;;;;;;22.30;44.10;;;;;;5004694;28;19921;-62
2023/06/11 07:19:59;;;;;;;;;;;22.30;44.10;;;;;;4999200;28;19921;-60
2023/06/11 07:22:27;;;;;;;;;;;22.30;44.10;;;;;;5005878;28;19921;-62
2023/06/11 07:24:56;;;;;;;;;;;22.30;44.10;;;;;;5005456;28;19953;-64
2023/06/11 07:27:22;;;;;;;;;;;22.30;44.10;;;;;;4996184;28;19921;-60
2023/06/11 07:29:50;;;;;;;;;;;22.30;44.10;;;;;;4993221;28;19944;-64
2023/06/11 07:32:17;;;;;;;;;;;22.30;44.10;;;;;;5010609;28;19957;-63
2023/06/11 07:34:44;;;;;;;;;;;22.30;44.10;;;;;;5004681;28;20315;-62
2023/06/11 07:37:11;;;;;;;;;;;22.30;44.20;;;;;;5006251;28;19925;-63
2023/06/11 07:39:38;;;;;;;;;;;22.30;44.20;;;;;;5000505;28;20185;-63
2023/06/11 07:42:06;;;;;;;;;;;22.30;44.20;;;;;;5006106;28;19921;-62
2023/06/11 07:44:33;;;;;;;;;;;22.30;44.20;;;;;;5007415;28;19956;-63
2023/06/11 07:47:01;;;;;;;;;;;22.30;44.20;;;;;;4999158;28;19996;-63
2023/06/11 07:49:28;;;;;;;;;;;22.30;44.20;;;;;;5002773;28;19980;-64
2023/06/11 07:51:55;;;;;;;;;;;22.40;44.30;;;;;;5006848;28;19930;-62
2023/06/11 07:54:22;;;;;;;;;;;22.40;44.30;;;;;;4988557;28;19928;-61
2023/06/11 07:56:49;;;;;;;;;;;22.30;44.20;;;;;;5007329;28;19928;-62
2023/06/11 07:59:15;;;;;;;;;;;22.30;44.20;;;;;;5007382;28;19928;-64
2023/06/11 08:01:42;;;;;;;;;;;22.40;44.30;;;;;;5006976;28;19922;-65
2023/06/11 08:04:11;;;;;;;;;;;22.30;44.20;;;;;;5006308;28;19925;-64
2023/06/11 08:06:37;;;;;;;;;;;22.30;44.20;;;;;;5001846;28;19926;-64
2023/06/11 08:09:05;;;;;;;;;;;22.30;44.10;;;;;;5008197;28;20017;-62
2023/06/11 08:11:32;;;;;;;;;;;22.30;44.10;;;;;;5008740;28;19989;-63
2023/06/11 08:13:59;;;;;;;;;;;22.30;44.20;;;;;;5002795;28;19941;-62
2023/06/11 08:16:26;;;;;;;;;;;22.30;44.20;;;;;;5002430;28;20307;-63
2023/06/11 08:18:54;;;;;;;;;;;22.30;44.20;;;;;;4999650;28;19969;-61
2023/06/11 08:21:22;;;;;;;;;;;22.30;44.20;;;;;;5022458;28;19957;-63
2023/06/11 08:23:50;;;;;;;;;;;22.30;44.20;;;;;;5008527;28;19922;-63
2023/06/11 08:26:16;;;;;;;;;;;22.40;44.50;;;;;;5004396;28;19926;-63
2023/06/11 08:28:43;;;;;;;;;;;22.30;44.20;;;;;;5018854;28;19921;-64
2023/06/11 08:31:10;;;;;;;;;;;22.40;44.40;;;;;;5025267;28;19921;-64
2023/06/11 08:33:37;;;;;;;;;;;22.40;44.50;;;;;;5027010;28;19922;-64
2023/06/11 08:36:04;;;;;;;;;;;22.40;44.60;;;;;;5006907;28;20375;-64
2023/06/11 08:38:32;;;;;;;;;;;22.40;44.60;;;;;;5002867;28;19929;-63
2023/06/11 08:40:59;;;;;;;;;;;22.40;44.60;;;;;;5006750;28;20434;-63
2023/06/11 08:43:26;;;;;;;;;;;22.40;44.60;;;;;;5004377;28;19933;-64
2023/06/11 08:45:54;;;;;;;;;;;22.40;44.60;;;;;;5014580;28;19939;-61
2023/06/11 08:48:21;;;;;;;;;;;22.40;45.30;;;;;;5000260;28;20024;-63
2023/06/11 08:50:49;;;;;;;;;;;22.40;44.70;;;;;;5018501;28;20025;-61
2023/06/11 08:53:16;;;;;;;;;;;22.40;44.70;;;;;;5020542;28;19926;-63
2023/06/11 08:55:44;;;;;;;;;;;22.40;44.70;;;;;;5008222;28;20430;-64
2023/06/11 08:58:12;;;;;;;;;;;22.40;44.70;;;;;;5007728;28;19930;-64
2023/06/11 09:00:39;;;;;;;;;;;22.40;44.70;;;;;;5021715;28;19961;-63
2023/06/11 09:03:08;;;;;;;;;;;22.50;44.70;;;;;;5000483;28;19922;-64
2023/06/11 09:05:46;;;;;;;;;;;22.50;44.80;;;;;;5005975;28;19933;-64
2023/06/11 09:08:12;;;;;;;;;;;22.50;44.70;;;;;;5009347;28;20015;-64
2023/06/11 09:10:49;;;;;;;;;;;22.50;44.70;;;;;;5015695;28;19925;-64
2023/06/11 09:13:16;;;;;;;;;;;22.50;44.70;;;;;;5007669;28;19921;-64
2023/06/11 09:15:46;;;;;;;;;;;22.50;44.70;;;;;;4999914;28;19922;-63
2023/06/11 09:18:19;;;;;;;;;;;22.50;44.50;;;;;;5009776;28;19921;-63
2023/06/11 09:20:48;;;;;;;;;;;22.50;44.30;;;;;;5002615;28;20392;-63
2023/06/11 09:23:23;;;;;;;;;;;22.50;44.10;;;;;;5003084;28;19925;-63
2023/06/11 09:25:52;;;;;;;;;;;22.50;43.90;;;;;;5010498;28;20410;-62
2023/06/11 09:28:19;;;;;;;;;;;22.50;43.80;;;;;;5010250;28;19972;-63
2023/06/11 09:30:53;;;;;;;;;;;22.50;43.90;;;;;;5007947;28;19922;-64
2023/06/11 09:33:20;;;;;;;;;;;22.50;44.00;;;;;;5004893;28;19921;-63
2023/06/11 09:35:46;;;;;;;;;;;22.50;44.00;;;;;;5006256;28;20089;-62
2023/06/11 09:38:15;;;;;;;;;;;22.50;44.00;;;;;;5010103;28;19929;-64
2023/06/11 09:40:45;;;;;;;;;;;22.60;44.30;;;;;;5008232;28;19929;-63
2023/06/11 09:43:13;;;;;;;;;;;22.60;44.40;;;;;;5001163;28;19936;-64
2023/06/11 09:45:40;;;;;;;;;;;22.60;44.50;;;;;;5003772;28;20276;-64
2023/06/11 09:48:07;;;;;;;;;;;22.60;44.60;;;;;;5006003;28;20019;-61
2023/06/11 09:50:34;;;;;;;;;;;22.60;44.70;;;;;;5007166;28;19921;-63
2023/06/11 09:53:02;;;;;;;;;;;22.60;44.70;;;;;;5007065;28;19932;-64
2023/06/11 09:55:30;;;;;;;;;;;22.60;44.80;;;;;;5004086;28;20019;-64
2023/06/11 09:57:57;;;;;;;;;;;22.60;44.80;;;;;;5007913;28;19928;-62
2023/06/11 10:00:25;;;;;;;;;;;22.60;44.70;;;;;;5006714;28;19921;-64
2023/06/11 10:02:52;;;;;;;;;;;22.70;44.70;;;;;;5007685;28;19926;-61
2023/06/11 10:05:20;;;;;;;;;;;22.70;44.70;;;;;;5010619;28;19929;-64
2023/06/11 10:07:47;;;;;;;;;;;22.70;45.30;;;;;;5013102;28;19921;-64
2023/06/11 10:10:15;;;;;;;;;;;22.70;44.60;;;;;;5015700;28;19967;-63
2023/06/11 10:12:41;;;;;;;;;;;22.70;44.50;;;;;;5011330;28;20149;-63
2023/06/11 10:15:11;;;;;;;;;;;22.70;44.40;;;;;;5005865;28;19921;-62
2023/06/11 10:17:44;;;;;;;;;;;22.70;44.40;;;;;;5004201;28;19922;-62
2023/06/11 10:20:16;;;;;;;;;;;22.70;44.30;;;;;;5003444;28;19925;-63
2023/06/11 10:22:43;;;;;;;;;;;22.70;44.30;;;;;;5028255;28;19922;-61
2023/06/11 10:25:10;;;;;;;;;;;22.70;44.30;;;;;;5008963;28;19944;-63
2023/06/11 10:27:37;;;;;;;;;;;22.70;44.30;;;;;;5003927;28;19969;-63
2023/06/11 10:30:05;;;;;;;;;;;22.70;44.30;;;;;;5011408;28;19965;-64
2023/06/11 10:32:31;;;;;;;;;;;22.70;44.30;;;;;;5013013;28;20015;-62
2023/06/11 10:35:00;;;;;;;;;;;22.80;43.80;;;;;;5012906;28;19967;-63
2023/06/11 10:37:28;;;;;;;;;;;22.80;44.10;;;;;;5010007;28;19927;-63
2023/06/11 10:39:55;;;;;;;;;;;22.80;44.10;;;;;;5018666;28;19983;-60
2023/06/11 10:42:25;;;;;;;;;;;22.80;43.90;;;;;;5016085;28;19960;-62
2023/06/11 10:44:52;;;;;;;;;;;22.80;43.70;;;;;;5003213;28;19968;-64
2023/06/11 10:47:19;;;;;;;;;;;22.80;43.70;;;;;;4997791;28;19947;-62
2023/06/11 10:49:46;;;;;;;;;;;22.80;43.70;;;;;;5001416;28;20002;-63
2023/06/11 10:52:14;;;;;;;;;;;22.80;43.70;;;;;;5011047;28;19929;-63
2023/06/11 10:54:41;;;;;;;;;;;22.80;43.70;;;;;;5011477;28;19968;-63
2023/06/11 10:57:08;;;;;;;;;;;22.80;43.70;;;;;;5006520;28;19922;-62
2023/06/11 10:59:36;;;;;;;;;;;22.80;43.70;;;;;;5014856;28;20380;-62
2023/06/11 11:02:03;;;;;;;;;;;22.90;43.80;;;;;;5007740;28;19933;-61
2023/06/11 11:04:29;;;;;;;;;;;22.90;43.80;;;;;;5002033;28;20411;-62
2023/06/11 11:07:07;;;;;;;;;;;22.90;43.70;;;;;;5008317;28;19977;-61
2023/06/11 11:09:36;;;;;;;;;;;22.90;43.70;;;;;;5028407;28;19921;-60
2023/06/11 11:12:02;;;;;;;;;;;22.90;43.50;;;;;;5006653;28;19925;-60
2023/06/11 11:14:30;;;;;;;;;;;22.90;43.20;;;;;;5008083;28;19921;-61
2023/06/11 11:17:00;;;;;;;;;;;23.00;43.30;;;;;;5026837;28;19971;-61
2023/06/11 11:19:27;;;;;;;;;;;23.00;43.20;;;;;;5010584;28;19996;-60
2023/06/11 11:21:54;;;;;;;;;;;23.00;43.10;;;;;;5002712;28;19976;-60
2023/06/11 11:24:23;;;;;;;;;;;23.00;43.90;;;;;;5005471;28;19933;-62
2023/06/11 11:26:51;;;;;;;;;;;23.70;44.10;;;;;;5011295;28;19921;-60
2023/06/11 11:29:18;;;;;;;;;;;24.80;42.50;;;;;;5008847;28;19988;-61
2023/06/11 11:31:44;;;;;;;;;;;26.00;40.70;;;;;;5006280;28;19932;-61
2023/06/11 11:34:12;;;;;;;;;;;27.40;38.60;;;;;;5010454;28;19929;-61
2023/06/11 11:36:39;;;;;;;;;;;28.80;36.70;;;;;;5010833;28;19972;-63
2023/06/11 11:39:09;;;;;;;;;;;30.00;34.60;;;;;;5028182;28;19921;-61
2023/06/11 11:41:44;;;;;;;;;;;31.00;33.00;;;;;;5008219;28;19928;-60
2023/06/11 11:44:13;;;;;;;;;;;32.00;31.80;;;;;;5001844;28;19926;-59
2023/06/11 11:46:39;;;;;;;;;;;32.00;31.70;;;;;;5020881;28;19933;-60
2023/06/11 11:49:06;;;;;;;;;;;31.80;31.60;;;;;;5007246;28;19999;-60
2023/06/11 11:51:35;;;;;;;;;;;31.40;32.10;;;;;;5023527;28;19926;-61
2023/06/11 11:54:02;;;;;;;;;;;31.00;31.80;;;;;;5005649;28;20060;-60
2023/06/11 11:56:32;;;;;;;;;;;30.50;31.60;;;;;;5009204;28;19929;-62
2023/06/11 11:58:58;;;;;;;;;;;30.10;31.80;;;;;;5006444;28;19972;-62
2023/06/11 12:01:32;;;;;;;;;;;29.80;32.70;;;;;;5005284;28;19925;-62
2023/06/11 12:04:00;;;;;;;;;;;29.80;32.80;;;;;;5005855;28;19921;-60
2023/06/11 12:06:26;;;;;;;;;;;29.90;32.30;;;;;;5002280;28;19921;-61
2023/06/11 12:08:53;;;;;;;;;;;29.70;32.50;;;;;;5005792;28;19929;-62
2023/06/11 12:11:20;;;;;;;;;;;29.50;32.80;;;;;;5006236;28;20009;-61
2023/06/11 12:13:47;;;;;;;;;;;29.20;32.50;;;;;;5007828;28;19930;-62
2023/06/11 12:16:14;;;;;;;;;;;29.00;32.30;;;;;;5003773;28;19930;-62
2023/06/11 12:18:43;;;;;;;;;;;28.70;32.40;;;;;;5004624;28;19976;-61
2023/06/11 12:21:09;;;;;;;;;;;28.50;32.40;;;;;;5008485;28;19921;-62
2023/06/11 12:23:36;;;;;;;;;;;28.40;32.50;;;;;;5005971;28;19929;-64
2023/06/11 12:26:03;;;;;;;;;;;28.20;32.80;;;;;;5000550;28;19945;-60
2023/06/11 12:28:32;;;;;;;;;;;28.00;32.90;;;;;;5005660;28;19922;-67
2023/06/11 12:30:59;;;;;;;;;;;27.90;33.10;;;;;;5005169;28;19921;-61
2023/06/11 12:33:25;;;;;;;;;;;27.70;33.30;;;;;;5009737;28;19988;-60
2023/06/11 12:35:54;;;;;;;;;;;27.60;33.50;;;;;;5007938;28;19933;-60
2023/06/11 12:38:20;;;;;;;;;;;27.40;33.60;;;;;;5008830;28;19957;-63
2023/06/11 12:40:48;;;;;;;;;;;27.30;33.80;;;;;;5007220;28;19953;-63
2023/06/11 12:43:14;;;;;;;;;;;27.20;34.10;;;;;;5012085;28;20426;-63
2023/06/11 12:45:41;;;;;;;;;;;27.10;34.50;;;;;;5006051;28;19939;-62
2023/06/11 12:48:08;;;;;;;;;;;27.00;34.30;;;;;;5009613;28;19973;-63
2023/06/11 12:50:34;;;;;;;;;;;26.90;34.40;;;;;;5008037;28;19926;-62
2023/06/11 12:53:04;;;;;;;;;;;26.90;34.50;;;;;;5012197;28;19983;-62
2023/06/11 12:55:30;;;;;;;;;;;26.80;33.90;;;;;;5004698;28;19921;-63
2023/06/11 12:57:57;;;;;;;;;;;26.70;32.60;;;;;;5015102;28;19921;-61
2023/06/11 13:00:25;;;;;;;;;;;26.70;32.10;;;;;;5010427;28;19921;-59
2023/06/11 13:02:52;;;;;;;;;;;26.60;31.30;;;;;;5010869;28;19921;-61
2023/06/11 13:05:21;;;;;;;;;;;26.60;30.10;;;;;;5014587;28;19974;-61
2023/06/11 13:07:48;;;;;;;;;;;26.50;30.40;;;;;;5029672;28;20372;-56
2023/06/11 13:10:19;;;;;;;;;;;26.50;30.60;;;;;;5005566;28;19925;-64
2023/06/11 13:12:46;;;;;;;;;;;26.50;30.60;;;;;;5015062;28;19922;-61
2023/06/11 13:15:13;;;;;;;;;;;26.50;30.70;;;;;;5012160;28;19922;-61
2023/06/11 13:17:39;;;;;;;;;;;26.50;30.80;;;;;;5013597;28;19968;-60
2023/06/11 13:20:07;;;;;;;;;;;26.40;30.20;;;;;;5014170;28;19957;-59
2023/06/11 13:22:34;;;;;;;;;;;26.30;30.00;;;;;;5034429;28;19976;-58
2023/06/11 13:25:01;;;;;;;;;;;26.20;30.10;;;;;;5023939;28;20318;-59
2023/06/11 13:27:29;;;;;;;;;;;26.10;30.40;;;;;;5017511;28;19921;-57
2023/06/11 13:29:58;;;;;;;;;;;26.10;31.10;;;;;;5015671;28;19925;-58
2023/06/11 13:32:24;;;;;;;;;;;25.90;31.50;;;;;;5017185;28;19928;-60
2023/06/11 13:34:52;;;;;;;;;;;25.80;31.90;;;;;;5012414;28;19933;-57
2023/06/11 13:37:19;;;;;;;;;;;25.70;32.30;;;;;;5022679;28;19921;-59
2023/06/11 13:39:46;;;;;;;;;;;25.60;32.70;;;;;;5020049;28;19956;-60
2023/06/11 13:42:13;;;;;;;;;;;25.50;32.90;;;;;;5010407;28;19956;-60
2023/06/11 13:44:41;;;;;;;;;;;25.40;33.20;;;;;;5013153;28;20245;-60
2023/06/11 13:47:11;;;;;;;;;;;25.30;33.60;;;;;;5013326;28;19925;-58
2023/06/11 13:49:39;;;;;;;;;;;25.30;33.90;;;;;;5010570;28;19941;-59
2023/06/11 13:52:06;;;;;;;;;;;25.20;34.20;;;;;;5014091;28;20431;-58
2023/06/11 13:54:33;;;;;;;;;;;25.10;34.30;;;;;;5013615;28;19921;-59
2023/06/11 13:57:01;;;;;;;;;;;25.00;34.50;;;;;;5010517;28;20360;-58
2023/06/11 13:59:28;;;;;;;;;;;25.00;34.70;;;;;;5014453;28;19980;-59
2023/06/11 14:02:00;;;;;;;;;;;24.90;35.00;;;;;;5008311;28;19976;-58
2023/06/11 14:04:28;;;;;;;;;;;24.90;35.10;;;;;;5011983;28;19922;-58
2023/06/11 14:06:55;;;;;;;;;;;24.80;35.30;;;;;;5014519;28;19944;-58
2023/06/11 14:09:21;;;;;;;;;;;24.70;35.50;;;;;;5005205;28;20228;-59
2023/06/11 14:11:48;;;;;;;;;;;24.70;35.60;;;;;;5005236;28;20069;-58
2023/06/11 14:14:15;;;;;;;;;;;24.60;35.70;;;;;;5003452;28;19921;-59
2023/06/11 14:16:42;;;;;;;;;;;24.60;35.90;;;;;;5006506;28;19922;-59
2023/06/11 14:19:10;;;;;;;;;;;24.60;36.20;;;;;;4992687;28;19929;-58